Apple Grove, West Virginia
Current Conditions -  °F | °C
As of 6:55 AM on Sunday 25 Jan 2015 (Local Time) from K3I2 Reporting Station
Haze Haze  
Wind Chill: 32°   Ceiling: Unl
Heat Index: 32°   Visibility: 3mi
Dew Point: 30°   Wind: 0mph
Humidity: 93%   Direction: NA
Pressure: 29.82"   Gusts: NA
Location:  38.66°N, 82.17°W
Report Text: K3I2 251155Z AUTO 00000KT 3SM BR CLR 00/M01 A2982 RMK AO2
Loading
Personal Weather Stations






























Interactive Weather Map New forecast layout! Learn more

10-Day Weather Forecast

Advertisements
Track Severe Weather on mobile